Time;durP1;ratioP1;P1;durP2;ratioP2;P2;SDS_P1;SDS_P2;PMS_P1;PMS_P2;Temp;Humidity;BMP_temperature;BMP_pressure;BME280_temperature;BME280_humidity;BME280_pressure;Samples;Min_cycle;Max_cycle;Signal;HPM_P1;HPM_P2
2023/10/20 00:01:28;;;;;;;2.42;2.00;;;23.60;54.70;;;;;;5086352;28;20403;-77
2023/10/20 00:03:54;;;;;;;3.38;2.80;;;23.70;54.80;;;;;;5093691;28;20036;-76
2023/10/20 00:06:20;;;;;;;3.90;2.70;;;23.60;54.70;;;;;;5092889;28;20035;-77
2023/10/20 00:08:47;;;;;;;5.15;2.55;;;23.60;54.80;;;;;;5093908;28;20104;-77
2023/10/20 00:11:13;;;;;;;3.60;2.50;;;23.70;54.80;;;;;;5101485;28;20106;-77
2023/10/20 00:13:40;;;;;;;2.75;2.00;;;23.60;54.80;;;;;;5093507;28;20035;-77
2023/10/20 00:16:06;;;;;;;3.70;2.40;;;23.60;54.80;;;;;;5105284;28;20081;-77
2023/10/20 00:18:32;;;;;;;3.47;2.50;;;23.60;54.80;;;;;;5058383;28;20035;-77
2023/10/20 00:20:58;;;;;;;3.80;2.45;;;23.60;54.80;;;;;;5099076;28;20110;-77
2023/10/20 00:23:24;;;;;;;6.82;2.35;;;23.60;54.80;;;;;;5109834;28;20459;-76
2023/10/20 00:25:51;;;;;;;9.75;2.33;;;23.60;54.80;;;;;;5090637;28;20482;-77
2023/10/20 00:28:17;;;;;;;3.97;2.67;;;23.50;54.90;;;;;;5092905;28;20030;-77
2023/10/20 00:30:43;;;;;;;2.75;2.05;;;23.50;54.90;;;;;;5112338;28;20039;-76
2023/10/20 00:33:09;;;;;;;2.53;2.17;;;23.60;54.90;;;;;;5092512;28;20089;-76
2023/10/20 00:35:35;;;;;;;3.05;2.33;;;23.60;54.90;;;;;;5092131;28;20103;-77
2023/10/20 00:38:01;;;;;;;2.63;2.10;;;23.70;55.00;;;;;;5092735;28;20482;-77
2023/10/20 00:40:28;;;;;;;3.70;2.85;;;23.60;54.90;;;;;;5075427;28;20450;-76
2023/10/20 00:42:54;;;;;;;4.70;2.30;;;23.60;54.90;;;;;;5101743;28;20063;-77
2023/10/20 00:45:20;;;;;;;3.78;2.53;;;23.60;54.90;;;;;;5062505;28;20395;-77
2023/10/20 00:47:48;;;;;;;4.03;2.17;;;23.50;54.90;;;;;;5113113;28;20039;-76
2023/10/20 00:50:15;;;;;;;5.47;2.80;;;23.50;54.90;;;;;;5111888;28;20023;-76
2023/10/20 00:52:48;;;;;;;4.68;3.03;;;23.60;54.90;;;;;;5111887;28;20096;-76
2023/10/20 00:55:15;;;;;;;;;;;23.70;55.00;;;;;;5096015;28;20078;-77
2023/10/20 00:57:43;;;;;;;2.83;2.30;;;23.60;54.90;;;;;;5092844;28;20441;-77
2023/10/20 01:00:10;;;;;;;5.40;2.78;;;23.60;54.80;;;;;;5092554;28;20031;-77
2023/10/20 01:02:37;;;;;;;4.63;2.65;;;23.60;54.90;;;;;;5075275;28;20020;-76
2023/10/20 01:05:08;;;;;;;2.88;2.20;;;23.60;54.80;;;;;;5089904;28;20036;-77
2023/10/20 01:07:35;;;;;;;2.53;2.25;;;23.60;54.90;;;;;;5093588;28;20038;-77
2023/10/20 01:10:05;;;;;;;7.82;2.90;;;23.50;54.90;;;;;;5051307;28;20036;-77
2023/10/20 01:12:34;;;;;;;2.67;2.40;;;23.60;54.90;;;;;;5094551;28;20040;-76
2023/10/20 01:15:00;;;;;;;3.67;2.67;;;23.50;54.90;;;;;;5088401;28;20028;-76
2023/10/20 01:17:27;;;;;;;4.68;3.08;;;23.50;54.90;;;;;;5091924;28;20039;-77
2023/10/20 01:19:54;;;;;;;4.03;2.72;;;23.50;54.90;;;;;;5073951;28;20035;-77
2023/10/20 01:22:20;;;;;;;3.63;2.35;;;23.50;54.90;;;;;;5086398;28;20020;-77
2023/10/20 01:24:46;;;;;;;4.32;2.50;;;23.50;54.90;;;;;;5079822;28;20063;-77
2023/10/20 01:27:12;;;;;;;6.88;2.55;;;23.50;54.90;;;;;;5087259;28;20080;-76
2023/10/20 01:29:38;;;;;;;4.88;2.63;;;23.50;55.00;;;;;;5071351;28;20512;-77
2023/10/20 01:32:04;;;;;;;5.43;2.65;;;23.40;54.90;;;;;;5084804;28;20111;-76
2023/10/20 01:34:31;;;;;;;4.38;2.83;;;23.40;54.90;;;;;;5089893;28;20024;-77
2023/10/20 01:36:57;;;;;;;4.30;2.63;;;23.60;55.00;;;;;;5070445;28;20082;-77
2023/10/20 01:39:23;;;;;;;4.88;2.85;;;23.50;55.00;;;;;;5071418;28;20040;-77
2023/10/20 01:41:49;;;;;;;4.85;2.42;;;23.70;55.10;;;;;;5082726;28;20036;-76
2023/10/20 01:44:15;;;;;;;5.90;3.30;;;23.60;55.00;;;;;;5089817;28;20477;-77
2023/10/20 01:46:49;;;;;;;3.72;2.60;;;23.50;55.00;;;;;;5075867;28;20037;-77
2023/10/20 01:49:16;;;;;;;4.10;2.83;;;23.50;55.00;;;;;;5074245;28;20537;-76
2023/10/20 01:51:42;;;;;;;3.25;2.65;;;23.60;55.00;;;;;;5075522;28;20032;-77
2023/10/20 01:54:08;;;;;;;4.80;2.20;;;23.50;55.00;;;;;;5074638;28;20040;-77
2023/10/20 01:56:34;;;;;;;4.45;2.85;;;23.60;54.90;;;;;;5077117;28;20127;-77
2023/10/20 01:59:00;;;;;;;5.97;2.92;;;23.40;54.80;;;;;;5077268;28;20116;-77
2023/10/20 02:01:27;;;;;;;6.68;2.88;;;23.60;54.90;;;;;;5080331;28;20032;-76
2023/10/20 02:03:53;;;;;;;5.28;2.83;;;23.50;54.90;;;;;;5093572;28;20088;-77
2023/10/20 02:06:19;;;;;;;4.40;2.72;;;23.40;54.80;;;;;;5094130;28;20095;-77
2023/10/20 02:08:45;;;;;;;3.78;2.80;;;23.60;54.90;;;;;;5073335;28;20040;-77
2023/10/20 02:11:11;;;;;;;5.70;3.47;;;23.40;54.90;;;;;;5086627;28;20028;-76
2023/10/20 02:13:38;;;;;;;4.10;2.97;;;23.40;54.80;;;;;;5095489;28;20486;-77
2023/10/20 02:16:08;;;;;;;5.68;3.22;;;23.50;55.00;;;;;;5092156;28;20137;-76
2023/10/20 02:18:34;;;;;;;5.72;2.67;;;23.50;54.90;;;;;;5074980;28;20043;-76
2023/10/20 02:21:03;;;;;;;4.63;2.65;;;23.40;54.80;;;;;;5076040;28;20036;-77
2023/10/20 02:23:31;;;;;;;4.35;3.05;;;23.50;54.90;;;;;;5092516;28;20040;-76
2023/10/20 02:26:01;;;;;;;6.03;2.80;;;23.40;54.90;;;;;;5097609;28;20044;-77
2023/10/20 02:28:27;;;;;;;4.35;2.88;;;23.30;55.00;;;;;;5076615;28;20032;-77
2023/10/20 02:30:56;;;;;;;5.10;2.60;;;23.40;55.00;;;;;;5081873;28;20038;-77
2023/10/20 02:33:22;;;;;;;4.30;2.80;;;23.40;55.00;;;;;;5055635;28;20642;-77
2023/10/20 02:35:48;;;;;;;3.90;2.70;;;23.40;54.90;;;;;;5051850;28;20048;-77
2023/10/20 02:38:14;;;;;;;7.82;3.22;;;23.50;55.00;;;;;;5052354;28;20045;-76
2023/10/20 02:40:52;;;;;;;6.38;2.75;;;23.50;55.00;;;;;;5052811;28;20391;-77
2023/10/20 02:43:18;;;;;;;6.25;3.22;;;23.50;55.00;;;;;;5061556;28;20056;-77
2023/10/20 02:45:52;;;;;;;4.10;2.40;;;23.50;55.00;;;;;;5018580;28;20053;-77
2023/10/20 02:48:19;;;;;;;4.07;2.20;;;23.40;55.00;;;;;;5032080;28;20120;-76
2023/10/20 02:50:46;;;;;;;2.53;2.33;;;23.40;55.00;;;;;;5022901;28;20141;-76
2023/10/20 02:53:13;;;;;;;6.38;2.72;;;23.50;55.00;;;;;;5021503;28;20045;-77
2023/10/20 02:55:41;;;;;;;6.60;3.33;;;23.50;55.00;;;;;;5025362;28;20552;-76
2023/10/20 02:58:10;;;;;;;7.30;2.50;;;23.60;55.00;;;;;;5012336;28;20052;-77
2023/10/20 03:00:50;;;;;;;5.35;2.55;;;23.50;55.00;;;;;;5013261;28;20541;-77
2023/10/20 03:03:17;;;;;;;2.05;1.85;;;23.50;55.00;;;;;;5015311;28;20405;-76
2023/10/20 03:05:45;;;;;;;2.22;2.03;;;23.40;54.90;;;;;;5071821;28;20544;-77
2023/10/20 03:08:11;;;;;;;3.00;1.90;;;23.50;55.00;;;;;;5013416;28;20462;-76
2023/10/20 03:10:41;;;;;;;3.72;2.60;;;23.60;55.00;;;;;;5027466;28;20052;-77
2023/10/20 03:13:07;;;;;;;1.75;1.63;;;23.40;54.90;;;;;;5015876;28;20891;-77
2023/10/20 03:15:33;;;;;;;2.10;1.85;;;23.50;55.00;;;;;;4998084;28;20069;-77
2023/10/20 03:17:59;;;;;;;4.82;2.30;;;23.40;55.00;;;;;;5037446;28;20068;-78
2023/10/20 03:20:30;;;;;;;5.63;2.42;;;23.30;55.00;;;;;;5049018;28;20127;-76
2023/10/20 03:22:56;;;;;;;7.78;2.95;;;23.50;55.10;;;;;;5010681;28;20041;-76
2023/10/20 03:25:22;;;;;;;4.50;2.38;;;23.50;55.10;;;;;;4991010;28;20776;-77
2023/10/20 03:27:48;;;;;;;4.45;2.88;;;23.50;55.10;;;;;;4991654;28;20525;-77
2023/10/20 03:30:17;;;;;;;4.55;3.20;;;23.30;55.00;;;;;;4975373;28;20038;-76
2023/10/20 03:32:47;;;;;;;4.95;2.70;;;23.50;55.20;;;;;;5007576;28;20052;-77
2023/10/20 03:35:13;;;;;;;3.60;2.22;;;23.30;55.00;;;;;;4975250;28;20096;-77
2023/10/20 03:37:39;;;;;;;2.53;1.98;;;23.40;55.10;;;;;;4991704;28;20418;-77
2023/10/20 03:40:13;;;;;;;4.55;2.35;;;23.40;55.10;;;;;;5021278;28;20073;-76
2023/10/20 03:42:43;;;;;;;1.80;1.65;;;23.40;55.00;;;;;;5031152;28;20513;-77
2023/10/20 03:45:13;;;;;;;1.35;1.20;;;23.40;55.00;;;;;;5030879;28;20432;-77
2023/10/20 03:47:39;;;;;;;1.98;1.70;;;23.50;55.20;;;;;;5030551;28;20044;-76
2023/10/20 03:50:16;;;;;;;5.07;2.38;;;23.50;55.20;;;;;;5032851;28;20169;-76
2023/10/20 03:52:46;;;;;;;2.95;2.25;;;23.50;55.20;;;;;;5030568;28;20045;-77
2023/10/20 03:55:13;;;;;;;3.75;2.30;;;23.40;55.10;;;;;;5071277;28;20152;-77
2023/10/20 03:57:41;;;;;;;1.63;1.52;;;23.60;55.10;;;;;;5053750;28;20523;-76
2023/10/20 04:00:29;;;;;;;3.90;2.40;;;23.40;55.00;;;;;;5068403;28;20056;-77
2023/10/20 04:02:56;;;;;;;5.00;3.00;;;23.40;55.00;;;;;;5026785;28;20118;-76
2023/10/20 04:05:23;;;;;;;8.95;2.60;;;23.40;55.00;;;;;;5056392;28;20662;-77
2023/10/20 04:07:50;;;;;;;3.88;2.63;;;23.40;55.00;;;;;;5093360;28;20563;-77
2023/10/20 04:10:18;;;;;;;7.70;2.70;;;23.40;55.10;;;;;;5104016;28;20089;-77
2023/10/20 04:12:45;;;;;;;6.28;2.35;;;23.40;55.00;;;;;;5107719;28;20490;-78
2023/10/20 04:15:15;;;;;;;4.63;2.13;;;23.30;55.10;;;;;;5094660;28;20036;-77
2023/10/20 04:17:51;;;;;;;1.88;1.52;;;23.30;55.10;;;;;;5074360;28;20110;-76
2023/10/20 04:20:23;;;;;;;3.92;1.70;;;23.20;55.10;;;;;;5092858;28;20487;-77
2023/10/20 04:22:49;;;;;;;5.22;2.78;;;23.40;55.20;;;;;;5099936;28;20062;-77
2023/10/20 04:25:21;;;;;;;4.38;3.03;;;23.30;55.20;;;;;;5101494;28;20101;-77
2023/10/20 04:27:52;;;;;;;4.78;3.15;;;23.30;55.30;;;;;;5095061;28;20441;-77
2023/10/20 04:47:36;;;;;;;2.63;2.22;;;23.50;54.80;;;;;;5100518;28;20032;-74
2023/10/20 05:07:53;;;;;;;8.48;2.83;;;23.80;56.20;;;;;;5101754;28;20407;-75
2023/10/20 05:10:20;;;;;;;4.22;3.42;;;23.80;55.50;;;;;;5111180;28;20364;-74
2023/10/20 05:12:47;;;;;;;7.50;2.70;;;23.90;58.30;;;;;;5103287;28;20039;-74
2023/10/20 05:15:13;;;;;;;5.03;3.22;;;23.90;55.70;;;;;;5059997;28;20032;-74
2023/10/20 05:17:40;;;;;;;5.53;3.03;;;23.80;55.20;;;;;;5111998;28;20119;-73
2023/10/20 05:20:13;;;;;;;4.18;3.03;;;23.80;55.30;;;;;;5073206;28;20028;-77
2023/10/20 05:22:42;;;;;;;3.83;2.97;;;23.90;55.10;;;;;;5100566;28;20108;-77
2023/10/20 05:25:11;;;;;;;3.90;2.90;;;23.70;55.10;;;;;;5102246;28;20048;-75
2023/10/20 05:27:38;;;;;;;3.20;2.65;;;23.80;55.60;;;;;;5091649;28;20033;-73
2023/10/20 05:30:04;;;;;;;2.85;2.33;;;23.80;56.00;;;;;;5107327;28;20024;-75
2023/10/20 05:32:33;;;;;;;7.45;2.70;;;23.80;56.20;;;;;;5091973;28;20028;-76
2023/10/20 05:34:59;;;;;;;6.13;3.20;;;23.70;56.40;;;;;;5073845;28;20051;-75
2023/10/20 05:37:26;;;;;;;6.05;3.33;;;23.80;56.60;;;;;;5090230;28;20066;-73
2023/10/20 05:39:53;;;;;;;5.70;3.83;;;23.80;56.70;;;;;;5112031;28;20099;-73
2023/10/20 05:42:19;;;;;;;4.43;2.75;;;23.80;57.00;;;;;;5093985;28;20032;-73
2023/10/20 05:44:58;;;;;;;4.45;3.05;;;23.70;56.80;;;;;;5112121;28;20065;-75
2023/10/20 05:47:25;;;;;;;6.82;3.45;;;23.80;57.30;;;;;;5111662;28;20032;-73
2023/10/20 05:49:51;;;;;;;4.53;2.97;;;23.90;61.10;;;;;;5106803;28;20115;-74
2023/10/20 05:52:17;;;;;;;2.95;2.28;;;23.90;62.70;;;;;;5088037;28;20032;-75
2023/10/20 05:54:43;;;;;;;5.05;2.92;;;23.90;60.80;;;;;;5103326;28;20028;-74
2023/10/20 05:57:09;;;;;;;5.72;2.50;;;23.90;59.90;;;;;;5100510;28;20498;-74
2023/10/20 05:59:36;;;;;;;4.55;3.05;;;23.90;59.50;;;;;;5108430;28;20034;-75
2023/10/20 06:02:03;;;;;;;4.88;2.75;;;23.90;59.10;;;;;;5103673;28;20028;-75
2023/10/20 06:04:29;;;;;;;5.25;2.83;;;23.90;58.40;;;;;;5083664;28;20028;-77
2023/10/20 06:06:56;;;;;;;11.02;3.47;;;23.90;58.10;;;;;;5077149;28;20089;-75
2023/10/20 06:09:25;;;;;;;2.95;2.13;;;23.80;58.50;;;;;;5097248;28;20036;-79
2023/10/20 06:11:54;;;;;;;7.32;2.78;;;23.70;58.30;;;;;;5086749;28;20483;-77
2023/10/20 06:14:26;;;;;;;10.23;1.92;;;23.90;58.20;;;;;;5111818;28;20032;-72
2023/10/20 06:16:53;;;;;;;4.85;2.53;;;23.90;58.10;;;;;;5110252;28;20036;-71
2023/10/20 06:19:19;;;;;;;5.05;2.58;;;23.90;57.80;;;;;;5096756;28;20695;-71
2023/10/20 06:21:46;;;;;;;11.20;3.83;;;23.90;57.50;;;;;;5095067;28;20036;-71
2023/10/20 06:24:13;;;;;;;10.05;3.00;;;23.90;57.00;;;;;;5072970;28;20087;-71
2023/10/20 06:26:39;;;;;;;8.90;3.20;;;23.90;56.70;;;;;;5091360;28;20044;-71
2023/10/20 06:34:34;;;;;;;8.50;3.92;;;23.90;55.90;;;;;;5031474;28;20259;-71
2023/10/20 06:37:12;;;;;;;3.40;2.85;;;23.90;55.80;;;;;;5031748;28;20045;-71
2023/10/20 06:39:39;;;;;;;6.85;3.55;;;24.00;55.70;;;;;;5042501;28;20045;-71
2023/10/20 06:42:05;;;;;;;9.23;3.42;;;24.00;55.60;;;;;;5051426;28;20075;-71
2023/10/20 06:44:31;;;;;;;5.03;3.45;;;24.00;55.50;;;;;;5051395;28;20119;-71
2023/10/20 06:46:59;;;;;;;10.32;3.58;;;23.90;55.40;;;;;;5051207;28;20400;-71
2023/10/20 06:49:26;;;;;;;7.32;3.30;;;23.90;55.30;;;;;;5033330;28;20060;-71
2023/10/20 06:51:52;;;;;;;8.43;3.15;;;24.00;55.30;;;;;;5038266;28;20049;-72
2023/10/20 06:54:18;;;;;;;5.25;3.40;;;24.00;55.20;;;;;;5050683;28;20516;-71
2023/10/20 06:56:44;;;;;;;6.00;3.08;;;24.10;55.20;;;;;;5034001;28;20037;-71
2023/10/20 06:59:13;;;;;;;6.10;3.20;;;24.10;55.20;;;;;;5050493;28;20103;-71
2023/10/20 07:01:40;;;;;;;3.85;3.35;;;24.10;55.10;;;;;;5049089;28;20551;-71
2023/10/20 07:04:10;;;;;;;5.97;3.30;;;24.10;55.10;;;;;;5048744;28;20045;-71
2023/10/20 07:06:36;;;;;;;4.80;3.33;;;24.10;55.10;;;;;;5075629;28;20187;-71
2023/10/20 07:09:13;;;;;;;4.35;3.05;;;24.10;55.00;;;;;;5114288;28;20039;-71
2023/10/20 07:11:43;;;;;;;3.65;2.35;;;24.10;55.00;;;;;;5109520;28;20093;-71
2023/10/20 07:14:13;;;;;;;4.13;2.45;;;24.10;54.90;;;;;;5113869;28;20408;-72
2023/10/20 07:16:39;;;;;;;2.72;1.98;;;24.20;54.90;;;;;;5096409;28;20036;-71
2023/10/20 07:19:06;;;;;;;7.22;2.90;;;24.20;54.80;;;;;;5094172;28;20040;-72
2023/10/20 07:21:33;;;;;;;6.85;3.20;;;24.10;54.80;;;;;;5093045;28;20040;-71
2023/10/20 07:24:01;;;;;;;5.60;3.42;;;24.10;54.70;;;;;;5095542;28;20036;-71
2023/10/20 07:26:28;;;;;;;5.30;2.65;;;24.10;54.70;;;;;;5077395;28;20120;-71
2023/10/20 07:28:53;;;;;;;9.57;3.67;;;24.10;54.70;;;;;;5092974;28;20489;-72
2023/10/20 07:31:22;;;;;;;7.10;3.95;;;24.00;54.50;;;;;;5102862;28;20118;-70
2023/10/20 07:33:51;;;;;;;9.43;3.55;;;24.20;54.60;;;;;;5113393;28;20049;-69
2023/10/20 07:36:18;;;;;;;6.43;3.22;;;24.10;54.40;;;;;;5113406;28;20035;-69
2023/10/20 07:38:44;;;;;;;6.82;3.08;;;24.10;54.20;;;;;;5094813;28;20039;-71
2023/10/20 07:41:12;;;;;;;4.97;3.28;;;24.10;54.30;;;;;;5092504;28;20574;-69
2023/10/20 07:43:39;;;;;;;5.60;3.00;;;24.10;54.20;;;;;;5078633;28;20478;-71
2023/10/20 07:46:05;;;;;;;3.97;2.90;;;24.10;54.30;;;;;;5094182;28;20028;-71
2023/10/20 07:48:32;;;;;;;4.70;3.25;;;24.10;54.30;;;;;;5074792;28;20024;-71
2023/10/20 07:51:02;;;;;;;6.30;3.08;;;24.10;54.30;;;;;;5092604;28;20028;-72
2023/10/20 07:53:30;;;;;;;9.20;2.63;;;24.10;54.30;;;;;;5104978;28;20112;-71
2023/10/20 07:55:56;;;;;;;5.25;3.33;;;24.20;54.30;;;;;;5113045;28;20055;-71
2023/10/20 07:58:22;;;;;;;9.90;3.22;;;24.20;54.40;;;;;;5112775;28;20518;-71
2023/10/20 08:00:48;;;;;;;5.13;3.58;;;24.10;54.40;;;;;;5102953;28;20503;-71
2023/10/20 08:03:14;;;;;;;7.45;3.08;;;24.10;54.40;;;;;;5099010;28;20060;-71
2023/10/20 08:05:40;;;;;;;5.13;3.90;;;24.10;54.30;;;;;;5092572;28;20039;-71
2023/10/20 08:08:07;;;;;;;8.82;3.42;;;24.10;54.40;;;;;;5102111;28;20043;-71
2023/10/20 08:10:33;;;;;;;6.20;3.53;;;24.30;54.40;;;;;;5094362;28;20047;-70
2023/10/20 08:12:59;;;;;;;15.05;3.60;;;24.10;54.30;;;;;;5073784;28;20036;-71
2023/10/20 08:15:28;;;;;;;3.35;2.80;;;24.10;54.30;;;;;;5077510;28;20361;-71
2023/10/20 08:17:55;;;;;;;4.38;2.30;;;24.10;54.30;;;;;;5092340;28;20114;-71
2023/10/20 08:20:22;;;;;;;2.17;1.58;;;24.10;54.30;;;;;;5081252;28;20038;-71
2023/10/20 08:22:48;;;;;;;1.85;1.38;;;24.20;54.30;;;;;;5092425;28;20479;-71
2023/10/20 08:25:15;;;;;;;1.65;1.33;;;24.10;54.20;;;;;;5101407;28;20054;-71
2023/10/20 08:27:41;;;;;;;4.53;2.22;;;24.10;54.20;;;;;;5096690;28;20028;-73
2023/10/20 08:30:08;;;;;;;5.03;2.20;;;24.20;54.10;;;;;;5106841;28;20512;-76
2023/10/20 08:32:34;;;;;;;1.92;1.70;;;24.10;53.90;;;;;;5082437;28;20394;-76
2023/10/20 08:35:00;;;;;;;5.82;2.83;;;24.20;53.80;;;;;;5103392;28;20028;-74
2023/10/20 08:37:26;;;;;;;8.75;3.67;;;24.10;53.70;;;;;;5093056;28;20023;-75
2023/10/20 08:39:54;;;;;;;4.20;1.70;;;24.10;53.40;;;;;;5075151;28;20036;-75
2023/10/20 08:42:21;;;;;;;3.03;1.92;;;24.10;53.00;;;;;;5088372;28;20039;-74
2023/10/20 08:44:49;;;;;;;27.73;3.55;;;24.20;52.60;;;;;;5082050;28;20031;-74
2023/10/20 08:47:17;;;;;;;5.50;3.28;;;24.00;52.20;;;;;;5080274;28;20488;-76
2023/10/20 08:49:44;;;;;;;12.10;4.28;;;24.10;52.10;;;;;;5091559;28;20067;-76
2023/10/20 08:52:14;;;;;;;5.22;3.70;;;24.10;51.90;;;;;;5091264;28;20514;-75
2023/10/20 08:54:41;;;;;;;7.38;3.63;;;24.00;51.70;;;;;;5076976;28;20422;-75
2023/10/20 08:57:08;;;;;;;6.85;3.13;;;24.10;51.70;;;;;;5091517;28;20391;-72
2023/10/20 08:59:37;;;;;;;7.03;3.60;;;23.90;51.40;;;;;;5077413;28;20406;-73
2023/10/20 09:02:03;;;;;;;5.07;3.42;;;24.00;51.30;;;;;;5109070;28;20110;-76
2023/10/20 09:04:29;;;;;;;4.32;3.28;;;24.00;51.20;;;;;;5102582;28;20035;-75
2023/10/20 09:06:56;;;;;;;2.97;2.05;;;24.00;51.10;;;;;;5104695;28;20055;-72
2023/10/20 09:09:22;;;;;;;4.80;2.72;;;24.00;51.10;;;;;;5106023;28;20548;-72
2023/10/20 09:11:48;;;;;;;4.43;2.53;;;23.90;51.00;;;;;;5111559;28;20065;-73
2023/10/20 09:14:14;;;;;;;3.90;3.30;;;23.90;51.00;;;;;;5096274;28;20431;-72
2023/10/20 09:16:42;;;;;;;4.97;2.63;;;23.80;50.90;;;;;;5081673;28;20486;-73
2023/10/20 09:19:13;;;;;;;4.38;3.08;;;23.90;51.00;;;;;;5081634;28;20036;-73
2023/10/20 09:21:39;;;;;;;4.03;2.90;;;24.00;51.00;;;;;;5092363;28;20027;-73
2023/10/20 09:24:08;;;;;;;4.88;3.53;;;23.90;51.10;;;;;;5100979;28;20063;-72
2023/10/20 09:26:35;;;;;;;3.75;2.83;;;23.90;51.20;;;;;;5102002;28;20097;-73
2023/10/20 09:29:05;;;;;;;3.90;2.67;;;23.90;51.20;;;;;;5080895;28;20345;-72
2023/10/20 09:31:31;;;;;;;4.03;2.72;;;23.70;51.20;;;;;;5074639;28;20036;-72
2023/10/20 09:33:58;;;;;;;8.18;2.72;;;23.90;51.40;;;;;;5090933;28;20031;-72
2023/10/20 09:36:25;;;;;;;5.38;3.05;;;23.90;51.40;;;;;;5092907;28;20479;-74
2023/10/20 09:38:55;;;;;;;3.92;2.72;;;23.90;51.60;;;;;;5105768;28;20356;-73
2023/10/20 09:41:23;;;;;;;4.63;3.53;;;23.80;51.50;;;;;;5073103;28;20047;-72
2023/10/20 09:43:52;;;;;;;4.43;2.72;;;23.90;51.70;;;;;;5072920;28;20051;-73
2023/10/20 09:46:31;;;;;;;2.72;2.33;;;23.90;51.70;;;;;;5093662;28;20031;-72
2023/10/20 09:49:00;;;;;;;3.53;2.88;;;23.90;51.70;;;;;;5081781;28;20028;-72
2023/10/20 09:51:27;;;;;;;4.00;2.83;;;23.90;51.70;;;;;;5110768;28;20108;-73
2023/10/20 09:53:54;;;;;;;4.10;2.72;;;23.80;51.70;;;;;;5106631;28;20681;-73
2023/10/20 09:56:21;;;;;;;4.00;2.97;;;23.90;51.90;;;;;;5072963;28;20039;-68
2023/10/20 09:58:47;;;;;;;10.18;3.70;;;23.80;51.90;;;;;;5072660;28;20097;-70
2023/10/20 10:01:15;;;;;;;7.35;3.70;;;23.90;53.30;;;;;;5072798;28;20025;-71
2023/10/20 10:03:41;;;;;;;24.27;5.70;;;23.90;52.50;;;;;;5096552;28;20513;-68
2023/10/20 10:06:09;;;;;;;7.32;4.18;;;24.00;52.30;;;;;;5104214;28;20433;-72
2023/10/20 10:08:38;;;;;;;9.27;3.47;;;23.90;52.20;;;;;;5097823;28;20115;-73
2023/10/20 10:11:20;;;;;;;9.10;4.40;;;24.00;52.20;;;;;;5104723;28;20123;-70
2023/10/20 10:13:57;;;;;;;7.32;3.65;;;24.00;52.40;;;;;;5105830;28;20082;-70
2023/10/20 10:16:24;;;;;;;22.05;4.88;;;24.00;52.50;;;;;;5101292;28;20028;-70
2023/10/20 10:18:50;;;;;;;12.18;4.10;;;24.10;51.80;;;;;;5105597;28;20055;-70
2023/10/20 10:21:28;;;;;;;9.73;4.30;;;24.20;52.50;;;;;;5061952;28;20395;-73
2023/10/20 10:24:14;;;;;;;11.50;3.85;;;24.20;51.60;;;;;;5087443;28;20036;-68
2023/10/20 10:27:02;;;;;;;8.60;3.47;;;24.20;49.10;;;;;;5097500;28;20402;-71
2023/10/20 10:29:50;;;;;;;8.23;4.13;;;24.30;50.40;;;;;;5088940;28;20400;-71
2023/10/20 10:32:18;;;;;;;8.02;3.70;;;24.40;51.00;;;;;;5080512;28;20068;-72
2023/10/20 10:34:45;;;;;;;4.55;3.97;;;24.50;50.70;;;;;;5091407;28;20040;-71
2023/10/20 10:37:12;;;;;;;10.95;4.88;;;24.40;51.40;;;;;;5091285;28;20125;-69
2023/10/20 10:39:38;;;;;;;60.75;13.10;;;24.50;51.00;;;;;;5082599;28;20039;-69
2023/10/20 10:42:05;;;;;;;8.60;3.47;;;24.70;50.20;;;;;;5071129;28;20483;-72
2023/10/20 10:44:37;;;;;;;8.88;3.00;;;24.80;53.00;;;;;;5071293;28;20500;-70
2023/10/20 10:47:04;;;;;;;6.15;3.25;;;24.80;52.00;;;;;;5059886;28;20078;-70
2023/10/20 10:49:32;;;;;;;6.75;3.20;;;24.90;52.00;;;;;;5071021;28;20194;-72
2023/10/20 10:52:03;;;;;;;6.53;2.92;;;24.90;51.70;;;;;;5038129;28;20139;-72
2023/10/20 10:54:33;;;;;;;9.05;3.50;;;24.80;51.50;;;;;;5072685;28;20082;-72
2023/10/20 10:57:01;;;;;;;6.95;3.42;;;24.90;51.70;;;;;;5054260;28;20032;-73
2023/10/20 10:59:27;;;;;;;11.88;3.97;;;24.90;52.20;;;;;;5071278;28;20032;-72
2023/10/20 11:01:53;;;;;;;10.35;4.10;;;25.10;53.60;;;;;;5076767;28;20037;-71
2023/10/20 11:04:19;;;;;;;10.57;4.30;;;25.30;52.30;;;;;;5093438;28;20499;-71
2023/10/20 11:06:46;;;;;;;9.75;2.80;;;25.30;49.50;;;;;;5076534;28;20523;-71
2023/10/20 11:09:18;;;;;;;6.80;3.00;;;25.20;51.00;;;;;;5093512;28;20074;-72
2023/10/20 11:11:47;;;;;;;11.27;5.10;;;25.20;51.30;;;;;;5075526;28;20123;-72
2023/10/20 11:14:21;;;;;;;8.70;3.08;;;25.20;51.40;;;;;;5049313;28;20072;-71
2023/10/20 11:16:47;;;;;;;6.97;4.50;;;25.00;52.30;;;;;;5037009;28;20067;-72
2023/10/20 11:19:14;;;;;;;5.57;3.80;;;25.10;52.10;;;;;;5046936;28;20107;-71
2023/10/20 11:21:51;;;;;;;6.35;3.83;;;25.10;52.00;;;;;;5016964;28;20076;-72
2023/10/20 11:24:28;;;;;;;7.60;4.22;;;25.00;51.50;;;;;;5033597;28;20035;-72
2023/10/20 11:26:59;;;;;;;7.88;4.10;;;25.00;51.60;;;;;;5030621;28;20064;-73
2023/10/20 11:29:26;;;;;;;7.63;4.05;;;24.90;50.80;;;;;;5021770;28;20040;-72
2023/10/20 11:31:52;;;;;;;7.05;3.33;;;25.00;51.20;;;;;;5039985;28;20045;-71
2023/10/20 11:34:18;;;;;;;8.00;4.72;;;24.90;50.80;;;;;;5031027;28;20507;-71
2023/10/20 11:36:44;;;;;;;13.50;5.40;;;24.90;50.70;;;;;;5029968;28;20136;-71
2023/10/20 11:39:11;;;;;;;10.60;4.72;;;24.90;50.60;;;;;;5012769;28;20049;-72
2023/10/20 11:41:37;;;;;;;6.55;4.05;;;24.70;50.70;;;;;;5041195;28;20059;-71
2023/10/20 11:44:04;;;;;;;6.10;4.38;;;24.80;50.80;;;;;;5029450;28;20033;-70
2023/10/20 11:46:30;;;;;;;6.70;3.90;;;24.70;51.10;;;;;;5041642;28;20059;-71
2023/10/20 11:48:56;;;;;;;9.27;4.13;;;24.80;50.90;;;;;;5029663;28;20053;-72
2023/10/20 11:51:22;;;;;;;8.30;3.28;;;24.70;50.90;;;;;;5039459;28;20039;-72
2023/10/20 11:53:48;;;;;;;8.18;3.30;;;24.90;50.90;;;;;;5090034;28;20092;-70
2023/10/20 11:56:15;;;;;;;11.55;4.30;;;24.70;50.80;;;;;;5086055;28;20111;-71
2023/10/20 11:58:41;;;;;;;9.20;3.90;;;24.70;50.80;;;;;;5112408;28;20032;-70
2023/10/20 12:01:07;;;;;;;7.38;4.15;;;24.70;50.70;;;;;;5104300;28;20032;-72
2023/10/20 12:03:33;;;;;;;4.65;3.58;;;24.70;50.60;;;;;;5085617;28;20023;-71
2023/10/20 12:05:59;;;;;;;5.35;3.78;;;24.70;50.60;;;;;;5109901;28;20028;-71
2023/10/20 12:08:26;;;;;;;5.68;3.75;;;24.70;50.70;;;;;;5111845;28;20046;-71
2023/10/20 12:10:52;;;;;;;6.45;3.72;;;24.70;50.60;;;;;;5098137;28;20028;-71
2023/10/20 12:13:18;;;;;;;4.90;3.85;;;24.70;50.60;;;;;;5089295;28;20110;-72
2023/10/20 12:15:44;;;;;;;9.68;3.70;;;24.60;50.50;;;;;;5086816;28;20122;-71
2023/10/20 12:18:10;;;;;;;7.15;4.18;;;24.60;50.50;;;;;;5099966;28;20030;-71
2023/10/20 12:20:37;;;;;;;6.60;4.15;;;24.50;50.70;;;;;;5095886;28;20063;-68
2023/10/20 12:23:05;;;;;;;5.78;3.50;;;24.50;50.80;;;;;;5099665;28;20430;-69
2023/10/20 12:25:32;;;;;;;7.45;3.35;;;24.60;50.80;;;;;;5082107;28;20122;-69
2023/10/20 12:27:58;;;;;;;8.07;3.38;;;24.50;50.80;;;;;;5081812;28;20110;-69
2023/10/20 12:30:24;;;;;;;8.23;3.88;;;24.50;50.90;;;;;;5082305;28;20039;-72
2023/10/20 12:32:52;;;;;;;7.88;4.20;;;24.50;50.90;;;;;;5079334;28;20040;-70
2023/10/20 12:35:18;;;;;;;7.60;3.67;;;24.50;51.00;;;;;;5094220;28;20025;-71
2023/10/20 12:37:46;;;;;;;7.65;3.75;;;24.50;51.00;;;;;;5099051;28;20059;-69
2023/10/20 12:40:13;;;;;;;4.40;3.05;;;24.50;51.10;;;;;;5091929;28;20637;-68
2023/10/20 12:42:40;;;;;;;6.05;3.30;;;24.40;51.00;;;;;;5076709;28;20052;-67
2023/10/20 12:45:09;;;;;;;6.50;4.05;;;24.50;51.10;;;;;;5094185;28;20061;-68
2023/10/20 12:47:36;;;;;;;8.25;3.60;;;24.40;51.10;;;;;;5089927;28;20028;-68
2023/10/20 12:50:03;;;;;;;6.38;4.25;;;24.40;51.10;;;;;;5108254;28;20031;-68
2023/10/20 12:52:29;;;;;;;11.88;4.60;;;24.40;51.00;;;;;;5108359;28;20036;-67
2023/10/20 12:54:55;;;;;;;7.10;4.63;;;24.40;51.10;;;;;;5076414;28;20024;-69
2023/10/20 12:57:21;;;;;;;9.23;4.22;;;24.40;51.10;;;;;;5091645;28;20024;-68
2023/10/20 12:59:47;;;;;;;8.65;3.60;;;24.50;51.20;;;;;;5095258;28;20497;-68
2023/10/20 13:02:13;;;;;;;5.28;3.72;;;24.40;51.10;;;;;;5076149;28;20419;-68
2023/10/20 13:04:39;;;;;;;6.20;3.17;;;24.30;51.10;;;;;;5109598;28;20027;-68
2023/10/20 13:07:06;;;;;;;7.18;3.63;;;24.30;51.20;;;;;;5111491;28;20031;-68
2023/10/20 13:09:32;;;;;;;6.03;3.83;;;24.40;51.30;;;;;;5091006;28;20039;-68
2023/10/20 13:11:58;;;;;;;8.18;4.60;;;24.30;51.30;;;;;;5102581;28;20036;-68
2023/10/20 13:14:28;;;;;;;10.82;4.78;;;24.30;51.20;;;;;;5092553;28;20034;-69
2023/10/20 13:16:54;;;;;;;7.20;4.85;;;24.20;51.20;;;;;;5091188;28;20374;-68
2023/10/20 13:19:20;;;;;;;6.55;3.95;;;24.20;51.30;;;;;;5091035;28;20089;-68
2023/10/20 13:21:46;;;;;;;7.95;3.53;;;24.20;51.30;;;;;;5091421;28;20458;-68
2023/10/20 13:24:12;;;;;;;10.20;4.25;;;24.20;51.40;;;;;;5092144;28;20047;-68
2023/10/20 13:26:38;;;;;;;6.25;3.72;;;24.20;51.50;;;;;;5073386;28;20043;-68
2023/10/20 13:29:05;;;;;;;12.52;4.53;;;24.20;51.60;;;;;;5091084;28;20053;-68